EDXW Airport Information

Runway Information
Runway 06 Length 5564 ft width 148 ft
Elevation 27 ft Threshold 0 ft Heading 60
Runway 24 Length 5564 ft Width 148 ft
Elevation 51 ft Threshold 0 ft Heading 240
Runway 14 Length 6955 ft width 148 ft
Elevation 32 ft Threshold 0 ft Heading 144
Runway 32 Length 6955 ft Width 148 ft
Elevation 31 ft Threshold 0 ft Heading 324
Airport Frequencies
Type INFO Name BREMEN INF Frequency 125.1 MHZ
Type RDR Name BREMEN RAD Frequency 136.225 MHZ
Type TWR Name SYLT TWR Frequency 119.75 MHZ
Airport Navaids
Type NDB Name Sylt Frequency 387 KHZ
Type DME Name Westerland Frequency 111500 KHZ
Airport Weather Information & NOTAM
ADDS - METARS form results

(2243 UTC 25 May 2022)
Data provider http://aviationweather.gov/metar/data/
 
METAR text: EDXW 252220Z AUTO 25019KT 9999 // BKN009/// BKN041/// 13/11 Q1009
Conditions at: EDXW (WESTERLAND/SYLT , DE) observed 2220 UTC 25 May 2022
Temperature: 13.0°C (55°F)
Dewpoint: 11.0°C (52°F) [RH = 88%]
Pressure (altimeter): 29.79 inches Hg (1009.0 mb)
Winds: from the WSW (250 degrees) at 22 MPH (19 knots; 9.8 m/s)
Visibility: 6 or more miles (10+ km)
Ceiling: 900 feet AGL
Clouds: broken clouds at 900 feet AGL
broken clouds at 4100 feet AGL
Weather: no significant weather observed at this time

METAR text: EDXW 252150Z AUTO 24020KT 9999 // BKN010/// OVC017/// 13/11 Q1009
Conditions at: EDXW (WESTERLAND/SYLT , DE) observed 2150 UTC 25 May 2022
Temperature: 13.0°C (55°F)
Dewpoint: 11.0°C (52°F) [RH = 88%]
Pressure (altimeter): 29.79 inches Hg (1009.0 mb)
Winds: from the WSW (240 degrees) at 23 MPH (20 knots; 10.3 m/s)
Visibility: 6 or more miles (10+ km)
Ceiling: 1000 feet AGL
Clouds: broken clouds at 1000 feet AGL
overcast cloud deck at 1700 feet AGL
Weather: no significant weather observed at this time

Forecast for: EDXW (WESTERLAND/SYLT , DE)
Text: TAF EDXW 251700Z 2518/2521 23015KT 9999 FEW020TCU
Forecast period: 1800 to 2100 UTC 25 May 2022
Forecast type: FROM: standard forecast or significant change
Winds: from the SW (230 degrees) at 17 MPH (15 knots; 7.7 m/s)
Visibility: 6 or more miles (10+ km)
Ceiling: at least 12,000 feet AGL
Clouds: few clouds at 2000 feet AGL
Weather: no significant weather forecast for this period
Text: TEMPO 2518/2521 25020G30KT
Forecast period: 1800 to 2100 UTC 25 May 2022
Forecast type: TEMPORARY: The following changes expected for less than half the time period
Winds: from the WSW (250 degrees) at 23 MPH (20 knots; 10.3 m/s)
gusting to 34 MPH (30 knots; 15.4 m/s)
Visibility: missing
Ceiling: unknown
Clouds: missing
Weather: no significant weather forecast for this period